Main page
METAR-TAF:

METAR-TAF

Airports :

Ouagadougou Airport

Ouagadougou, Burkina Faso

latitude: 12-21N, longitude: 001-31W, elevation: 316 m

Current weather observation

The report was made 7 hours and 39 minutes ago, at 15:00 UTC
Wind 5 kt from the East, varying between Northeast and South
Temperature 39°C
Humidity 10%
Pressure 1007 hPa
Visibility: 6000 m

METAR: DFFD 041500Z 10005KT 050V170 6000 NSC 39/02 Q1007 NOSIG

Time: 22:39 (22:39 UTC)

Forecast

The report was made 5 hours and 39 minutes ago, at 17:00 UTC
Forecast valid from 04 at 18 UTC to 05 at 24 UTC
Wind 10 kt from the East
Visibility: 6000 m
Temporary
from 04 at 18 UTC to 04 at 20 UTC
Visibility: 3500 m
widespread dust
Temporary
from 05 at 06 UTC to 05 at 10 UTC
Visibility: 3500 m
widespread dust
Temporary
from 05 at 17 UTC to 05 at 20 UTC
Visibility: 3500 m
widespread dust

TAF: DFFD 041700Z 0418/0524 08010KT 6000 NSC TEMPO 0418/0420 3500 DU TEMPO 0506/0510 3500 DU TEMPO 0517/0520 3500 DU

Weather observations and forecasts of more than 4000 airports (METAR and TAF reports).

The available stations are represented by yellow and red dots on the map.

Hover mouse over dot to see the name of the station.

Then click to see weather observations and forecasts.

To change the map : click on the green buttons with a black cross to zoom in, on the green button with a dash to zoom out, or on the green arrows for adjacent maps.


METAR-TAF: